sensor_id;sensor_type;location;lat;lon;timestamp;pressure;altitude;pressure_sealevel;temperature;humidity
75146;BME280;63641;46.526;24.612;2023-08-01T00:01:48;96901.22;;;16.87;76.71
75146;BME280;63641;46.526;24.612;2023-08-01T00:04:14;96894.63;;;16.88;76.84
75146;BME280;63641;46.526;24.612;2023-08-01T00:06:43;96894.63;;;16.88;76.91
75146;BME280;63641;46.526;24.612;2023-08-01T00:09:09;96896.53;;;16.88;76.95
75146;BME280;63641;46.526;24.612;2023-08-01T00:11:36;96898.63;;;16.91;77.11
75146;BME280;63641;46.526;24.612;2023-08-01T00:14:03;96879.22;;;16.84;77.12
75146;BME280;63641;46.526;24.612;2023-08-01T00:16:29;96891.56;;;16.90;77.21
75146;BME280;63641;46.526;24.612;2023-08-01T00:18:57;96887.69;;;16.91;77.34
75146;BME280;63641;46.526;24.612;2023-08-01T00:21:24;96880.50;;;16.86;76.98
75146;BME280;63641;46.526;24.612;2023-08-01T00:23:51;96875.06;;;16.78;76.68
75146;BME280;63641;46.526;24.612;2023-08-01T00:26:18;96880.22;;;16.79;76.71
75146;BME280;63641;46.526;24.612;2023-08-01T00:28:45;96875.06;;;16.78;76.87
75146;BME280;63641;46.526;24.612;2023-08-01T00:31:12;96875.75;;;16.75;77.23
75146;BME280;63641;46.526;24.612;2023-08-01T00:33:38;96877.00;;;16.77;77.30
75146;BME280;63641;46.526;24.612;2023-08-01T00:36:05;96880.09;;;16.76;77.01
75146;BME280;63641;46.526;24.612;2023-08-01T00:38:37;96878.66;;;16.70;76.79
75146;BME280;63641;46.526;24.612;2023-08-01T00:41:04;96880.56;;;16.69;77.09
75146;BME280;63641;46.526;24.612;2023-08-01T00:43:31;96880.91;;;16.67;77.33
75146;BME280;63641;46.526;24.612;2023-08-01T00:46:00;96875.91;;;16.70;77.40
75146;BME280;63641;46.526;24.612;2023-08-01T00:48:30;96871.25;;;16.70;77.28
75146;BME280;63641;46.526;24.612;2023-08-01T00:50:59;96871.09;;;16.66;77.51
75146;BME280;63641;46.526;24.612;2023-08-01T00:53:27;96872.25;;;16.65;77.38
75146;BME280;63641;46.526;24.612;2023-08-01T00:55:55;96871.75;;;16.63;77.71
75146;BME280;63641;46.526;24.612;2023-08-01T00:58:22;96869.69;;;16.60;77.78
75146;BME280;63641;46.526;24.612;2023-08-01T01:00:48;96864.38;;;16.64;77.86
75146;BME280;63641;46.526;24.612;2023-08-01T01:03:16;96861.19;;;16.62;77.59
75146;BME280;63641;46.526;24.612;2023-08-01T01:08:34;96852.84;;;16.58;77.57
75146;BME280;63641;46.526;24.612;2023-08-01T01:11:01;96856.03;;;16.60;77.58
75146;BME280;63641;46.526;24.612;2023-08-01T01:13:27;96857.19;;;16.59;77.55
75146;BME280;63641;46.526;24.612;2023-08-01T01:15:54;96853.66;;;16.59;77.55
75146;BME280;63641;46.526;24.612;2023-08-01T01:18:21;96856.72;;;16.57;77.47
75146;BME280;63641;46.526;24.612;2023-08-01T01:20:47;96847.25;;;16.55;77.32
75146;BME280;63641;46.526;24.612;2023-08-01T01:23:15;96850.97;;;16.50;77.34
75146;BME280;63641;46.526;24.612;2023-08-01T01:25:42;96837.97;;;16.47;77.24
75146;BME280;63641;46.526;24.612;2023-08-01T01:28:10;96833.81;;;16.50;77.29
75146;BME280;63641;46.526;24.612;2023-08-01T01:30:37;96832.19;;;16.49;77.47
75146;BME280;63641;46.526;24.612;2023-08-01T01:33:04;96839.56;;;16.48;77.49
75146;BME280;63641;46.526;24.612;2023-08-01T01:35:34;96827.72;;;16.44;77.10
75146;BME280;63641;46.526;24.612;2023-08-01T01:38:02;96829.16;;;16.41;77.47
75146;BME280;63641;46.526;24.612;2023-08-01T01:40:33;96818.09;;;16.38;77.84
75146;BME280;63641;46.526;24.612;2023-08-01T01:43:00;96817.00;;;16.39;77.74
75146;BME280;63641;46.526;24.612;2023-08-01T01:45:27;96810.72;;;16.38;77.83
75146;BME280;63641;46.526;24.612;2023-08-01T01:47:54;96808.31;;;16.37;77.77
75146;BME280;63641;46.526;24.612;2023-08-01T01:50:20;96812.19;;;16.36;77.82
75146;BME280;63641;46.526;24.612;2023-08-01T01:52:47;96798.41;;;16.32;77.93
75146;BME280;63641;46.526;24.612;2023-08-01T01:55:14;96803.53;;;16.34;77.92
75146;BME280;63641;46.526;24.612;2023-08-01T01:57:41;96798.28;;;16.29;77.89
75146;BME280;63641;46.526;24.612;2023-08-01T02:00:08;96810.78;;;16.30;77.98
75146;BME280;63641;46.526;24.612;2023-08-01T02:02:38;96807.25;;;16.29;78.04
75146;BME280;63641;46.526;24.612;2023-08-01T02:05:05;96820.56;;;16.31;78.03
75146;BME280;63641;46.526;24.612;2023-08-01T02:07:32;96813.72;;;16.25;78.06
75146;BME280;63641;46.526;24.612;2023-08-01T02:10:00;96818.16;;;16.29;78.01
75146;BME280;63641;46.526;24.612;2023-08-01T02:12:27;96815.78;;;16.28;77.88
75146;BME280;63641;46.526;24.612;2023-08-01T02:14:58;96819.97;;;16.25;78.06
75146;BME280;63641;46.526;24.612;2023-08-01T02:17:25;96828.03;;;16.22;77.72
75146;BME280;63641;46.526;24.612;2023-08-01T02:19:52;96829.16;;;16.21;77.67
75146;BME280;63641;46.526;24.612;2023-08-01T02:22:19;96829.94;;;16.21;77.90
75146;BME280;63641;46.526;24.612;2023-08-01T02:24:46;96835.88;;;16.23;77.58
75146;BME280;63641;46.526;24.612;2023-08-01T02:27:13;96832.19;;;16.19;77.41
75146;BME280;63641;46.526;24.612;2023-08-01T02:29:40;96835.25;;;16.17;77.20
75146;BME280;63641;46.526;24.612;2023-08-01T02:32:07;96829.81;;;16.17;77.17
75146;BME280;63641;46.526;24.612;2023-08-01T02:34:34;96825.19;;;16.09;76.92
75146;BME280;63641;46.526;24.612;2023-08-01T02:37:00;96825.19;;;16.09;76.78
75146;BME280;63641;46.526;24.612;2023-08-01T02:39:27;96830.97;;;16.08;76.55
75146;BME280;63641;46.526;24.612;2023-08-01T02:41:54;96833.09;;;16.02;76.47
75146;BME280;63641;46.526;24.612;2023-08-01T02:44:20;96824.78;;;15.99;76.69
75146;BME280;63641;46.526;24.612;2023-08-01T02:46:51;96826.69;;;15.98;76.43
75146;BME280;63641;46.526;24.612;2023-08-01T02:49:17;96826.41;;;15.91;76.56
75146;BME280;63641;46.526;24.612;2023-08-01T02:51:44;96825.13;;;15.88;76.32
75146;BME280;63641;46.526;24.612;2023-08-01T02:54:11;96829.31;;;15.86;76.44
75146;BME280;63641;46.526;24.612;2023-08-01T02:56:37;96826.56;;;15.86;76.26
75146;BME280;63641;46.526;24.612;2023-08-01T02:59:08;96826.13;;;15.84;76.45
75146;BME280;63641;46.526;24.612;2023-08-01T03:01:38;96832.22;;;15.81;76.43
75146;BME280;63641;46.526;24.612;2023-08-01T03:04:06;96823.56;;;15.79;76.51
75146;BME280;63641;46.526;24.612;2023-08-01T03:06:33;96831.72;;;15.79;76.54
75146;BME280;63641;46.526;24.612;2023-08-01T03:09:00;96827.75;;;15.76;76.56
75146;BME280;63641;46.526;24.612;2023-08-01T03:11:27;96841.06;;;15.78;76.52
75146;BME280;63641;46.526;24.612;2023-08-01T03:13:54;96840.25;;;15.77;76.67
75146;BME280;63641;46.526;24.612;2023-08-01T03:16:21;96836.72;;;15.77;76.58
75146;BME280;63641;46.526;24.612;2023-08-01T03:18:48;96834.00;;;15.77;76.47
75146;BME280;63641;46.526;24.612;2023-08-01T03:21:14;96830.47;;;15.76;76.44
75146;BME280;63641;46.526;24.612;2023-08-01T03:23:41;96837.84;;;15.76;76.62
75146;BME280;63641;46.526;24.612;2023-08-01T03:26:08;96834.66;;;15.74;76.56
75146;BME280;63641;46.526;24.612;2023-08-01T03:28:35;96846.69;;;15.73;76.53
75146;BME280;63641;46.526;24.612;2023-08-01T03:31:02;96841.09;;;15.69;76.83
75146;BME280;63641;46.526;24.612;2023-08-01T03:33:28;96839.00;;;15.66;77.02
75146;BME280;63641;46.526;24.612;2023-08-01T03:35:56;96848.00;;;15.66;77.38
75146;BME280;63641;46.526;24.612;2023-08-01T03:38:22;96849.13;;;15.65;77.57
75146;BME280;63641;46.526;24.612;2023-08-01T03:40:49;96851.84;;;15.65;77.55
75146;BME280;63641;46.526;24.612;2023-08-01T03:43:16;96851.22;;;15.68;77.62
75146;BME280;63641;46.526;24.612;2023-08-01T03:45:43;96854.88;;;15.73;77.71
75146;BME280;63641;46.526;24.612;2023-08-01T03:48:09;96858.06;;;15.75;77.63
75146;BME280;63641;46.526;24.612;2023-08-01T03:50:36;96846.03;;;15.76;77.88
75146;BME280;63641;46.526;24.612;2023-08-01T03:53:03;96852.75;;;15.78;77.93
75146;BME280;63641;46.526;24.612;2023-08-01T03:55:30;96851.31;;;15.81;77.90
75146;BME280;63641;46.526;24.612;2023-08-01T03:57:56;96855.34;;;15.83;78.05
75146;BME280;63641;46.526;24.612;2023-08-01T04:00:23;96845.38;;;15.79;77.77
75146;BME280;63641;46.526;24.612;2023-08-01T04:02:50;96857.88;;;15.88;77.95
75146;BME280;63641;46.526;24.612;2023-08-01T04:05:17;96853.53;;;15.87;78.05
75146;BME280;63641;46.526;24.612;2023-08-01T04:07:44;96855.59;;;15.90;78.41
75146;BME280;63641;46.526;24.612;2023-08-01T04:10:11;96849.84;;;15.92;78.38
75146;BME280;63641;46.526;24.612;2023-08-01T04:12:37;96852.56;;;15.92;78.50
75146;BME280;63641;46.526;24.612;2023-08-01T04:15:04;96858.31;;;15.99;78.65
75146;BME280;63641;46.526;24.612;2023-08-01T04:17:31;96862.44;;;16.05;78.66
75146;BME280;63641;46.526;24.612;2023-08-01T04:19:58;96861.00;;;16.08;78.75
75146;BME280;63641;46.526;24.612;2023-08-01T04:22:25;96867.53;;;16.15;78.69
75146;BME280;63641;46.526;24.612;2023-08-01T04:24:52;96868.81;;;16.18;78.69
75146;BME280;63641;46.526;24.612;2023-08-01T04:27:19;96874.88;;;16.24;78.93
75146;BME280;63641;46.526;24.612;2023-08-01T04:29:45;96862.84;;;16.25;78.77
75146;BME280;63641;46.526;24.612;2023-08-01T04:32:12;96861.06;;;16.29;79.02
75146;BME280;63641;46.526;24.612;2023-08-01T04:34:41;96858.13;;;16.34;78.75
75146;BME280;63641;46.526;24.612;2023-08-01T04:37:08;96859.88;;;16.38;78.76
75146;BME280;63641;46.526;24.612;2023-08-01T04:39:34;96854.53;;;16.42;78.77
75146;BME280;63641;46.526;24.612;2023-08-01T04:42:01;96850.84;;;16.47;78.86
75146;BME280;63641;46.526;24.612;2023-08-01T04:44:28;96845.03;;;16.48;78.63
75146;BME280;63641;46.526;24.612;2023-08-01T04:46:56;96850.97;;;16.50;78.75
75146;BME280;63641;46.526;24.612;2023-08-01T04:49:23;96858.97;;;16.55;78.69
75146;BME280;63641;46.526;24.612;2023-08-01T04:51:53;96848.84;;;16.56;78.86
75146;BME280;63641;46.526;24.612;2023-08-01T04:54:20;96856.84;;;16.61;79.06
75146;BME280;63641;46.526;24.612;2023-08-01T04:56:47;96854.94;;;16.61;79.03
75146;BME280;63641;46.526;24.612;2023-08-01T04:59:14;96852.19;;;16.61;79.42
75146;BME280;63641;46.526;24.612;2023-08-01T05:01:40;96855.38;;;16.63;79.38
75146;BME280;63641;46.526;24.612;2023-08-01T05:04:07;96853.00;;;16.62;79.45
75146;BME280;63641;46.526;24.612;2023-08-01T05:06:34;96850.72;;;16.64;79.55
75146;BME280;63641;46.526;24.612;2023-08-01T05:09:01;96848.47;;;16.66;79.71
75146;BME280;63641;46.526;24.612;2023-08-01T05:11:28;96855.03;;;16.74;79.85
75146;BME280;63641;46.526;24.612;2023-08-01T05:13:55;96852.44;;;16.77;79.94
75146;BME280;63641;46.526;24.612;2023-08-01T05:16:22;96851.28;;;16.78;79.79
75146;BME280;63641;46.526;24.612;2023-08-01T05:18:49;96846.44;;;16.84;79.86
75146;BME280;63641;46.526;24.612;2023-08-01T05:21:15;96856.84;;;16.90;80.00
75146;BME280;63641;46.526;24.612;2023-08-01T05:23:42;96850.81;;;16.97;80.17
75146;BME280;63641;46.526;24.612;2023-08-01T05:26:09;96854.63;;;17.05;80.45
75146;BME280;63641;46.526;24.612;2023-08-01T05:28:36;96848.47;;;17.08;80.78
75146;BME280;63641;46.526;24.612;2023-08-01T05:31:03;96846.34;;;17.13;80.39
75146;BME280;63641;46.526;24.612;2023-08-01T05:33:30;96850.63;;;17.23;80.83
75146;BME280;63641;46.526;24.612;2023-08-01T05:35:57;96845.72;;;17.29;80.73
75146;BME280;63641;46.526;24.612;2023-08-01T05:38:23;96863.31;;;17.40;80.83
75146;BME280;63641;46.526;24.612;2023-08-01T05:40:50;96848.75;;;17.48;81.04
75146;BME280;63641;46.526;24.612;2023-08-01T05:43:17;96864.41;;;17.60;80.93
75146;BME280;63641;46.526;24.612;2023-08-01T05:45:43;96865.56;;;17.71;80.98
75146;BME280;63641;46.526;24.612;2023-08-01T05:48:10;96862.41;;;17.81;80.98
75146;BME280;63641;46.526;24.612;2023-08-01T05:50:37;96860.38;;;17.91;81.01
75146;BME280;63641;46.526;24.612;2023-08-01T05:53:04;96856.75;;;17.99;80.84
75146;BME280;63641;46.526;24.612;2023-08-01T05:55:32;96862.09;;;18.07;80.88
75146;BME280;63641;46.526;24.612;2023-08-01T05:57:59;96862.34;;;18.15;80.60
75146;BME280;63641;46.526;24.612;2023-08-01T06:00:26;96868.50;;;18.24;80.58
75146;BME280;63641;46.526;24.612;2023-08-01T06:02:53;96866.00;;;18.31;80.48
75146;BME280;63641;46.526;24.612;2023-08-01T06:05:20;96861.56;;;18.39;80.24
75146;BME280;63641;46.526;24.612;2023-08-01T06:07:47;96856.19;;;18.42;80.19
75146;BME280;63641;46.526;24.612;2023-08-01T06:10:13;96852.88;;;18.49;80.08
75146;BME280;63641;46.526;24.612;2023-08-01T06:12:40;96850.69;;;18.54;80.15
75146;BME280;63641;46.526;24.612;2023-08-01T06:15:07;96853.66;;;18.62;80.04
75146;BME280;63641;46.526;24.612;2023-08-01T06:17:34;96847.72;;;18.72;79.92
75146;BME280;63641;46.526;24.612;2023-08-01T06:20:01;96850.69;;;18.79;79.85
75146;BME280;63641;46.526;24.612;2023-08-01T06:22:31;96843.78;;;18.85;79.68
75146;BME280;63641;46.526;24.612;2023-08-01T06:24:57;96841.72;;;18.94;79.39
75146;BME280;63641;46.526;24.612;2023-08-01T06:27:24;96841.59;;;19.03;79.25
75146;BME280;63641;46.526;24.612;2023-08-01T06:29:51;96843.84;;;19.13;79.23
75146;BME280;63641;46.526;24.612;2023-08-01T06:32:18;96849.72;;;19.27;78.88
75146;BME280;63641;46.526;24.612;2023-08-01T06:34:45;96848.53;;;19.41;78.74
75146;BME280;63641;46.526;24.612;2023-08-01T06:37:11;96850.84;;;19.54;78.37
75146;BME280;63641;46.526;24.612;2023-08-01T06:39:38;96847.81;;;19.72;77.95
75146;BME280;63641;46.526;24.612;2023-08-01T06:42:05;96846.69;;;19.89;77.55
75146;BME280;63641;46.526;24.612;2023-08-01T06:44:32;96846.00;;;20.08;77.25
75146;BME280;63641;46.526;24.612;2023-08-01T06:46:58;96849.09;;;20.22;76.85
75146;BME280;63641;46.526;24.612;2023-08-01T06:49:25;96842.78;;;20.37;76.59
75146;BME280;63641;46.526;24.612;2023-08-01T06:51:53;96849.84;;;20.54;76.15
75146;BME280;63641;46.526;24.612;2023-08-01T06:54:19;96851.25;;;20.64;75.58
75146;BME280;63641;46.526;24.612;2023-08-01T06:56:46;96856.38;;;20.81;75.03
75146;BME280;63641;46.526;24.612;2023-08-01T06:59:15;96847.69;;;20.98;74.62
75146;BME280;63641;46.526;24.612;2023-08-01T07:01:43;96844.16;;;21.17;73.73
75146;BME280;63641;46.526;24.612;2023-08-01T07:04:10;96847.34;;;21.39;73.29
75146;BME280;63641;46.526;24.612;2023-08-01T07:06:38;96858.38;;;21.58;72.76
75146;BME280;63641;46.526;24.612;2023-08-01T07:09:06;96844.50;;;21.74;72.53
75146;BME280;63641;46.526;24.612;2023-08-01T07:11:33;96861.75;;;21.94;71.88
75146;BME280;63641;46.526;24.612;2023-08-01T07:14:00;96854.59;;;22.12;71.15
75146;BME280;63641;46.526;24.612;2023-08-01T07:16:26;96849.78;;;22.29;70.43
75146;BME280;63641;46.526;24.612;2023-08-01T07:18:55;96845.22;;;22.40;69.63
75146;BME280;63641;46.526;24.612;2023-08-01T07:21:21;96846.19;;;22.51;69.17
75146;BME280;63641;46.526;24.612;2023-08-01T07:23:49;96856.66;;;22.65;68.50
75146;BME280;63641;46.526;24.612;2023-08-01T07:26:16;96852.81;;;22.73;68.60
75146;BME280;63641;46.526;24.612;2023-08-01T07:28:43;96853.81;;;22.88;68.70
75146;BME280;63641;46.526;24.612;2023-08-01T07:31:10;96854.09;;;23.06;68.33
75146;BME280;63641;46.526;24.612;2023-08-01T07:33:37;96849.19;;;23.26;67.72
75146;BME280;63641;46.526;24.612;2023-08-01T07:36:04;96860.88;;;23.46;67.02
75146;BME280;63641;46.526;24.612;2023-08-01T07:38:31;96853.91;;;23.59;66.43
75146;BME280;63641;46.526;24.612;2023-08-01T07:41:02;96850.16;;;23.74;66.10
75146;BME280;63641;46.526;24.612;2023-08-01T07:43:30;96851.47;;;23.84;65.76
75146;BME280;63641;46.526;24.612;2023-08-01T07:45:58;96856.31;;;23.94;64.93
75146;BME280;63641;46.526;24.612;2023-08-01T07:48:25;96852.03;;;24.04;64.50
75146;BME280;63641;46.526;24.612;2023-08-01T07:50:52;96846.22;;;24.16;64.61
75146;BME280;63641;46.526;24.612;2023-08-01T07:53:18;96850.75;;;24.39;64.24
75146;BME280;63641;46.526;24.612;2023-08-01T07:55:45;96842.63;;;24.56;63.36
75146;BME280;63641;46.526;24.612;2023-08-01T07:58:12;96856.56;;;24.74;62.57
75146;BME280;63641;46.526;24.612;2023-08-01T08:00:39;96855.88;;;24.92;62.89
75146;BME280;63641;46.526;24.612;2023-08-01T08:03:05;96852.03;;;25.11;61.62
75146;BME280;63641;46.526;24.612;2023-08-01T08:05:34;96847.75;;;25.20;61.29
75146;BME280;63641;46.526;24.612;2023-08-01T08:08:05;96836.28;;;25.25;60.84
75146;BME280;63641;46.526;24.612;2023-08-01T08:10:32;96843.81;;;25.28;60.43
75146;BME280;63641;46.526;24.612;2023-08-01T08:12:58;96843.00;;;25.21;60.45
75146;BME280;63641;46.526;24.612;2023-08-01T08:15:26;96828.34;;;25.13;60.49
75146;BME280;63641;46.526;24.612;2023-08-01T08:17:52;96826.38;;;25.17;60.12
75146;BME280;63641;46.526;24.612;2023-08-01T08:20:19;96828.00;;;25.29;60.14
75146;BME280;63641;46.526;24.612;2023-08-01T08:22:46;96824.50;;;25.43;60.00
75146;BME280;63641;46.526;24.612;2023-08-01T08:25:13;96821.38;;;25.62;60.11
75146;BME280;63641;46.526;24.612;2023-08-01T08:27:39;96826.59;;;25.82;60.21
75146;BME280;63641;46.526;24.612;2023-08-01T08:30:07;96822.25;;;25.88;60.27
75146;BME280;63641;46.526;24.612;2023-08-01T08:32:35;96817.13;;;25.97;59.55
75146;BME280;63641;46.526;24.612;2023-08-01T08:35:02;96818.28;;;26.17;59.44
75146;BME280;63641;46.526;24.612;2023-08-01T08:37:29;96819.09;;;26.36;59.18
75146;BME280;63641;46.526;24.612;2023-08-01T08:39:55;96804.84;;;26.52;58.98
75146;BME280;63641;46.526;24.612;2023-08-01T08:42:22;96800.88;;;26.63;58.33
75146;BME280;63641;46.526;24.612;2023-08-01T08:44:54;96794.50;;;26.77;58.13
75146;BME280;63641;46.526;24.612;2023-08-01T08:47:25;96796.81;;;26.93;58.27
75146;BME280;63641;46.526;24.612;2023-08-01T08:49:55;96790.00;;;27.08;57.42
75146;BME280;63641;46.526;24.612;2023-08-01T08:52:24;96785.66;;;27.18;56.44
75146;BME280;63641;46.526;24.612;2023-08-01T08:54:51;96795.13;;;27.20;56.25
75146;BME280;63641;46.526;24.612;2023-08-01T08:57:19;96790.00;;;27.23;56.81
75146;BME280;63641;46.526;24.612;2023-08-01T08:59:47;96779.97;;;27.39;55.75
75146;BME280;63641;46.526;24.612;2023-08-01T09:02:15;96789.47;;;27.45;55.04
75146;BME280;63641;46.526;24.612;2023-08-01T09:04:41;96781.59;;;27.37;55.06
75146;BME280;63641;46.526;24.612;2023-08-01T09:07:10;96778.00;;;27.40;54.64
75146;BME280;63641;46.526;24.612;2023-08-01T09:09:37;96778.81;;;27.37;54.11
75146;BME280;63641;46.526;24.612;2023-08-01T09:12:05;96766.94;;;27.33;53.48
75146;BME280;63641;46.526;24.612;2023-08-01T09:14:32;96764.91;;;27.37;53.17
75146;BME280;63641;46.526;24.612;2023-08-01T09:17:06;96764.13;;;27.36;52.97
75146;BME280;63641;46.526;24.612;2023-08-01T09:19:34;96761.34;;;27.36;53.58
75146;BME280;63641;46.526;24.612;2023-08-01T09:22:02;96764.84;;;27.51;53.06
75146;BME280;63641;46.526;24.612;2023-08-01T09:24:36;96759.19;;;27.65;52.72
75146;BME280;63641;46.526;24.612;2023-08-01T09:27:03;96757.09;;;27.84;52.65
75146;BME280;63641;46.526;24.612;2023-08-01T09:29:31;96754.13;;;28.05;52.42
75146;BME280;63641;46.526;24.612;2023-08-01T09:32:11;96753.91;;;28.30;51.55
75146;BME280;63641;46.526;24.612;2023-08-01T09:34:38;96760.19;;;28.41;51.85
75146;BME280;63641;46.526;24.612;2023-08-01T09:37:05;96757.44;;;28.38;51.48
75146;BME280;63641;46.526;24.612;2023-08-01T09:39:31;96749.22;;;28.20;52.00
75146;BME280;63641;46.526;24.612;2023-08-01T09:42:00;96741.63;;;28.24;51.39
75146;BME280;63641;46.526;24.612;2023-08-01T09:44:28;96741.94;;;28.37;51.30
75146;BME280;63641;46.526;24.612;2023-08-01T09:47:03;96740.59;;;28.52;50.49
75146;BME280;63641;46.526;24.612;2023-08-01T09:49:31;96732.88;;;28.67;50.69
75146;BME280;63641;46.526;24.612;2023-08-01T09:51:58;96727.16;;;28.81;49.07
75146;BME280;63641;46.526;24.612;2023-08-01T09:54:25;96729.44;;;28.90;48.33
75146;BME280;63641;46.526;24.612;2023-08-01T09:56:54;96723.84;;;28.90;48.06
75146;BME280;63641;46.526;24.612;2023-08-01T09:59:24;96721.78;;;28.98;47.78
75146;BME280;63641;46.526;24.612;2023-08-01T10:01:53;96709.44;;;29.02;47.67
75146;BME280;63641;46.526;24.612;2023-08-01T10:04:26;96708.47;;;29.12;47.24
75146;BME280;63641;46.526;24.612;2023-08-01T10:07:05;96706.06;;;29.15;47.08
75146;BME280;63641;46.526;24.612;2023-08-01T10:09:34;96702.25;;;29.01;47.37
75146;BME280;63641;46.526;24.612;2023-08-01T10:12:02;96698.78;;;28.90;47.55
75146;BME280;63641;46.526;24.612;2023-08-01T10:14:32;96696.69;;;29.01;47.19
75146;BME280;63641;46.526;24.612;2023-08-01T10:16:59;96689.41;;;29.11;47.08
75146;BME280;63641;46.526;24.612;2023-08-01T10:19:27;96694.84;;;29.22;46.18
75146;BME280;63641;46.526;24.612;2023-08-01T10:21:57;96684.81;;;29.28;46.06
75146;BME280;63641;46.526;24.612;2023-08-01T10:24:25;96679.38;;;29.44;46.08
75146;BME280;63641;46.526;24.612;2023-08-01T10:26:53;96690.34;;;29.58;46.29
75146;BME280;63641;46.526;24.612;2023-08-01T10:29:19;96679.31;;;29.75;46.24
75146;BME280;63641;46.526;24.612;2023-08-01T10:31:53;96673.94;;;29.88;45.58
75146;BME280;63641;46.526;24.612;2023-08-01T10:34:21;96673.81;;;29.95;44.72
75146;BME280;63641;46.526;24.612;2023-08-01T10:36:58;96662.81;;;30.07;44.47
75146;BME280;63641;46.526;24.612;2023-08-01T10:39:27;96660.75;;;30.12;44.77
75146;BME280;63641;46.526;24.612;2023-08-01T10:44:26;96668.41;;;30.31;43.71
75146;BME280;63641;46.526;24.612;2023-08-01T10:48:08;96660.94;;;30.44;43.10
75146;BME280;63641;46.526;24.612;2023-08-01T10:52:24;96650.00;;;30.53;43.08
75146;BME280;63641;46.526;24.612;2023-08-01T10:55:01;96655.94;;;30.55;42.80
75146;BME280;63641;46.526;24.612;2023-08-01T10:57:29;96645.78;;;30.65;42.59
75146;BME280;63641;46.526;24.612;2023-08-01T10:59:57;96649.22;;;30.73;42.23
75146;BME280;63641;46.526;24.612;2023-08-01T11:02:26;96649.47;;;30.82;41.85
75146;BME280;63641;46.526;24.612;2023-08-01T11:06:26;96647.88;;;30.81;41.52
75146;BME280;63641;46.526;24.612;2023-08-01T11:08:53;96636.47;;;30.72;41.37
75146;BME280;63641;46.526;24.612;2023-08-01T11:11:20;96647.44;;;30.83;41.44
75146;BME280;63641;46.526;24.612;2023-08-01T11:13:53;96646.81;;;30.75;41.43
75146;BME280;63641;46.526;24.612;2023-08-01T11:16:23;96626.38;;;30.58;41.29
75146;BME280;63641;46.526;24.612;2023-08-01T11:18:50;96602.13;;;30.35;41.95
75146;BME280;63641;46.526;24.612;2023-08-01T11:21:26;96629.13;;;30.42;41.58
75146;BME280;63641;46.526;24.612;2023-08-01T11:23:56;96612.72;;;30.24;41.64
75146;BME280;63641;46.526;24.612;2023-08-01T11:26:23;96632.41;;;30.37;41.27
75146;BME280;63641;46.526;24.612;2023-08-01T11:28:50;96615.09;;;30.45;41.09
75146;BME280;63641;46.526;24.612;2023-08-01T11:31:17;96623.16;;;30.60;40.80
75146;BME280;63641;46.526;24.612;2023-08-01T11:33:55;96621.59;;;30.59;40.64
75146;BME280;63641;46.526;24.612;2023-08-01T11:36:25;96617.84;;;30.65;41.12
75146;BME280;63641;46.526;24.612;2023-08-01T11:38:53;96613.75;;;30.70;40.98
75146;BME280;63641;46.526;24.612;2023-08-01T11:41:20;96612.06;;;30.76;40.85
75146;BME280;63641;46.526;24.612;2023-08-01T11:43:47;96603.19;;;30.81;40.81
75146;BME280;63641;46.526;24.612;2023-08-01T11:46:14;96580.78;;;30.65;40.60
75146;BME280;63641;46.526;24.612;2023-08-01T11:48:44;96575.19;;;30.65;42.18
75146;BME280;63641;46.526;24.612;2023-08-01T11:51:13;96579.13;;;30.67;41.47
75146;BME280;63641;46.526;24.612;2023-08-01T11:53:40;96587.00;;;30.72;40.99
75146;BME280;63641;46.526;24.612;2023-08-01T11:56:07;96589.34;;;30.74;40.86
75146;BME280;63641;46.526;24.612;2023-08-01T11:58:35;96540.22;;;30.40;40.60
75146;BME280;63641;46.526;24.612;2023-08-01T12:01:08;96585.06;;;30.69;40.77
75146;BME280;63641;46.526;24.612;2023-08-01T12:04:03;96573.03;;;30.72;40.61
75146;BME280;63641;46.526;24.612;2023-08-01T12:06:31;96569.75;;;30.77;39.84
75146;BME280;63641;46.526;24.612;2023-08-01T12:09:08;96570.31;;;30.69;39.74
75146;BME280;63641;46.526;24.612;2023-08-01T12:11:35;96551.53;;;30.53;40.07
75146;BME280;63641;46.526;24.612;2023-08-01T12:16:41;96563.88;;;30.72;39.67
75146;BME280;63641;46.526;24.612;2023-08-01T12:19:09;96550.69;;;30.72;39.29
75146;BME280;63641;46.526;24.612;2023-08-01T12:21:36;96558.22;;;30.75;38.85
75146;BME280;63641;46.526;24.612;2023-08-01T12:24:03;96558.16;;;30.79;38.85
75146;BME280;63641;46.526;24.612;2023-08-01T12:26:30;96552.50;;;30.83;38.72
75146;BME280;63641;46.526;24.612;2023-08-01T12:28:57;96536.69;;;30.76;39.06
75146;BME280;63641;46.526;24.612;2023-08-01T12:31:24;96541.16;;;30.90;39.13
75146;BME280;63641;46.526;24.612;2023-08-01T12:33:51;96541.56;;;30.88;38.94
75146;BME280;63641;46.526;24.612;2023-08-01T12:36:20;96507.22;;;30.71;39.05
75146;BME280;63641;46.526;24.612;2023-08-01T12:38:47;96522.38;;;30.90;39.37
75146;BME280;63641;46.526;24.612;2023-08-01T12:41:14;96531.38;;;30.98;39.31
75146;BME280;63641;46.526;24.612;2023-08-01T12:43:41;96526.94;;;31.00;39.00
75146;BME280;63641;46.526;24.612;2023-08-01T12:46:08;96525.78;;;30.98;39.17
75146;BME280;63641;46.526;24.612;2023-08-01T12:48:34;96503.59;;;30.91;38.75
75146;BME280;63641;46.526;24.612;2023-08-01T12:51:02;96522.13;;;31.01;39.01
75146;BME280;63641;46.526;24.612;2023-08-01T12:53:29;96505.44;;;30.97;38.85
75146;BME280;63641;46.526;24.612;2023-08-01T12:55:56;96477.25;;;30.92;39.09
75146;BME280;63641;46.526;24.612;2023-08-01T12:58:23;96499.84;;;31.14;38.94
75146;BME280;63641;46.526;24.612;2023-08-01T13:00:49;96498.97;;;31.17;38.69
75146;BME280;63641;46.526;24.612;2023-08-01T13:03:16;96512.41;;;31.22;38.36
75146;BME280;63641;46.526;24.612;2023-08-01T13:05:43;96479.78;;;31.02;38.41